CWO260 Weather Reports


Display with metric or nautical units.
time (UTC)temp
F
wind
direction
speed
MPH
gust
MPH
rain 1hr
in
rain 24hr
in
rain mn
in
humidity
%
barometer
mb
20221209020002 48 271 0.0 2.0 0.00 0.00 0.00 73 1022.1
20221209013003 51 275 2.0 3.0 0.00 0.00 0.00 69 1022.3
20221209010003 53 275 1.0 7.0 0.00 0.00 0.00 65 1022.1
20221209003004 56 284 1.0 6.0 0.00 0.00 0.00 59 1022.3
20221208230006 60 263 4.0 11.0 0.00 0.00 0.00 49 1022.5
20221208223008 61 282 7.0 10.0 0.00 0.00 0.00 48 1022.9
20221208213002 62 334 3.0 10.0 0.00 0.00 0.00 46 1023.6
20221208210003 62 265 7.0 10.0 0.00 0.00 0.00 41 1023.8
20221208200003 60 244 2.0 8.0 0.00 0.00 0.00 40 1024.4
20221208193002 60 286 1.0 8.0 0.00 0.00 0.00 43 1025.2
20221208190002 58 254 0.0 7.0 0.00 0.00 0.00 48 1025.6
20221208183002 57 273 2.0 6.0 0.00 0.00 0.00 52 1026.0
20221208180003 55 177 0.0 4.0 0.00 0.00 0.00 59 1026.2
20221208170002 49 214 1.0 2.0 0.00 0.00 0.00 74 1025.9
20221208163002 45 53 0.0 0.0 0.00 0.00 0.00 85 1025.5
20221208160001 39 54 0.0 1.0 0.00 0.00 0.00 94 1025.3
20221208153002 33 54 0.0 2.0 0.00 0.00 0.00 94 1025.1
20221208150002 31 54 0.0 0.0 0.00 0.00 0.00 93 1025.0
20221208130000 33 54 0.0 0.0 0.00 0.00 0.00 93 1024.8
20221208123001 33 54 0.0 0.0 0.00 0.00 0.00 93 1024.7
20221208113000 33 54 0.0 2.0 0.00 0.00 0.00 93 1024.9
20221208100001 35 346 0.0 1.0 0.00 0.00 0.00 93 1025.4
20221208093000 34 346 0.0 0.0 0.00 0.00 0.00 93 1024.9
20221208090000 35 346 0.0 0.0 0.00 0.00 0.00 92 1025.2
20221208083000 36 346 0.0 1.0 0.00 0.00 0.00 91 1025.7
20221208080000 36 346 0.0 1.0 0.00 0.00 0.00 91 1025.7
20221208072959 37 346 0.0 2.0 0.00 0.00 0.00 92 1025.6
20221208065959 38 312 0.0 1.0 0.00 0.00 0.00 91 1025.4
20221208060003 39 330 0.0 0.0 0.00 0.00 0.00 91 1025.4
20221208053003 40 330 0.0 1.0 0.00 0.00 0.00 89 1025.3
20221208045958 41 330 0.0 0.0 0.00 0.00 0.00 89 1025.1
20221208043002 42 330 0.0 0.0 0.00 0.00 0.00 87 1024.9
20221208040028 44 330 0.0 1.0 0.00 0.00 0.00 86 1024.7
20221208032958 45 330 0.0 2.0 0.00 0.00 0.00 85 1024.4
20221208025957 45 330 0.0 0.0 0.00 0.00 0.00 83 1024.1
20221208022957 48 325 0.0 3.0 0.00 0.00 0.00 77 1023.5